createdAt,value
2018-05-29T00:01:18.437Z,9.07
2018-05-29T00:03:47.281Z,8.90
2018-05-29T00:06:16.119Z,9.30
2018-05-29T00:08:44.946Z,8.90
2018-05-29T00:11:15.591Z,9.73
2018-05-29T00:13:44.431Z,9.30
2018-05-29T00:16:13.259Z,9.27
2018-05-29T00:18:42.205Z,8.67
2018-05-29T00:21:11.256Z,8.43
2018-05-29T00:23:40.138Z,9.00
2018-05-29T00:26:08.939Z,9.83
2018-05-29T00:28:37.791Z,9.90
2018-05-29T00:31:06.587Z,9.87
2018-05-29T00:33:35.386Z,9.40
2018-05-29T00:36:04.232Z,10.23
2018-05-29T00:38:33.088Z,9.40
2018-05-29T00:41:01.971Z,10.03
2018-05-29T00:43:30.814Z,9.97
2018-05-29T00:45:59.647Z,10.57
2018-05-29T00:48:28.433Z,10.27
2018-05-29T00:50:57.265Z,9.30
2018-05-29T00:53:26.064Z,9.83
2018-05-29T00:55:54.926Z,9.73
2018-05-29T00:58:25.037Z,9.90
2018-05-29T01:00:53.926Z,9.17
2018-05-29T01:03:22.726Z,9.47
2018-05-29T01:05:51.542Z,8.40
2018-05-29T01:08:21.742Z,8.87
2018-05-29T01:10:51.017Z,8.57
2018-05-29T01:13:19.994Z,9.30
2018-05-29T01:15:48.794Z,10.73
2018-05-29T01:18:17.699Z,9.60
2018-05-29T01:20:46.489Z,9.50
2018-05-29T01:23:15.482Z,9.10
2018-05-29T01:25:44.296Z,9.20
2018-05-29T01:28:13.127Z,10.33
2018-05-29T01:30:41.979Z,10.20
2018-05-29T01:33:10.830Z,10.70
2018-05-29T01:35:39.630Z,10.60
2018-05-29T01:38:08.522Z,10.97
2018-05-29T01:40:37.409Z,11.40
2018-05-29T01:43:06.223Z,10.50
2018-05-29T01:45:35.909Z,11.17
2018-05-29T01:48:04.712Z,11.23
2018-05-29T01:50:33.506Z,11.70
2018-05-29T01:53:02.381Z,11.60
2018-05-29T01:55:31.162Z,11.23
2018-05-29T01:58:00.262Z,12.40
2018-05-29T02:00:29.154Z,11.77
2018-05-29T02:02:58.041Z,11.80
2018-05-29T02:05:26.939Z,12.40
2018-05-29T02:07:57.269Z,11.30
2018-05-29T02:10:26.257Z,11.03
2018-05-29T02:12:55.151Z,10.67
2018-05-29T02:15:23.940Z,10.40
2018-05-29T02:17:52.789Z,11.60
2018-05-29T02:20:21.614Z,10.63
2018-05-29T02:22:50.511Z,11.63
2018-05-29T02:25:19.495Z,11.70
2018-05-29T02:27:48.391Z,12.57
2018-05-29T02:30:17.284Z,10.80
2018-05-29T02:32:46.146Z,11.67
2018-05-29T02:35:14.943Z,12.53
2018-05-29T02:37:44.758Z,11.90
2018-05-29T02:40:13.762Z,10.80
2018-05-29T02:42:42.552Z,13.33
2018-05-29T02:45:11.348Z,12.87
2018-05-29T02:47:40.644Z,12.50
2018-05-29T02:50:09.533Z,12.33
2018-05-29T02:52:38.436Z,12.67
2018-05-29T02:55:07.425Z,11.20
2018-05-29T02:57:36.315Z,11.33
2018-05-29T03:00:05.212Z,14.60
2018-05-29T03:02:34.003Z,11.13
2018-05-29T03:05:02.806Z,10.93
2018-05-29T03:07:33.110Z,11.70
2018-05-29T03:10:01.910Z,11.03
2018-05-29T03:12:30.989Z,12.33
2018-05-29T03:15:00.069Z,11.80
2018-05-29T03:17:28.875Z,11.10
2018-05-29T03:19:57.708Z,10.57
2018-05-29T03:22:26.510Z,11.30
2018-05-29T03:24:55.313Z,11.20
2018-05-29T03:27:24.657Z,12.70
2018-05-29T03:29:53.456Z,11.80
2018-05-29T03:32:22.327Z,11.37
2018-05-29T03:34:51.430Z,11.00
2018-05-29T03:37:20.326Z,10.93
2018-05-29T03:39:49.205Z,10.77
2018-05-29T03:42:18.022Z,9.93
2018-05-29T03:44:46.837Z,12.10
2018-05-29T03:47:15.981Z,10.10
2018-05-29T03:49:44.875Z,11.50
2018-05-29T03:52:13.762Z,11.50
2018-05-29T03:54:42.715Z,11.70
2018-05-29T03:57:11.545Z,12.70
2018-05-29T03:59:40.416Z,11.37
2018-05-29T04:02:09.243Z,12.30
2018-05-29T04:04:38.039Z,12.00
2018-05-29T04:07:07.214Z,11.00
2018-05-29T04:09:37.651Z,11.10
2018-05-29T04:12:06.457Z,11.17
2018-05-29T04:14:35.530Z,12.03
2018-05-29T04:17:04.525Z,14.23
2018-05-29T04:19:33.315Z,13.13
2018-05-29T04:22:02.410Z,13.87
2018-05-29T04:24:31.297Z,13.00
2018-05-29T04:27:00.187Z,12.53
2018-05-29T04:29:29.422Z,11.53
2018-05-29T04:31:58.234Z,12.87
2018-05-29T04:34:27.062Z,11.60
2018-05-29T04:36:55.879Z,12.87
2018-05-29T04:39:24.690Z,11.17
2018-05-29T04:41:53.850Z,12.60
2018-05-29T04:44:22.654Z,12.20
2018-05-29T04:46:51.524Z,11.43
2018-05-29T04:49:20.823Z,12.33
2018-05-29T04:51:49.625Z,11.63
2018-05-29T04:54:18.439Z,11.03
2018-05-29T04:56:48.527Z,10.67
2018-05-29T04:59:17.318Z,11.47
2018-05-29T05:01:46.118Z,10.43
2018-05-29T05:04:15.090Z,9.77
2018-05-29T05:06:44.358Z,9.63
2018-05-29T05:09:14.717Z,9.40
2018-05-29T05:11:43.617Z,10.90
2018-05-29T05:14:12.424Z,9.50
2018-05-29T05:16:41.803Z,10.47
2018-05-29T05:19:10.607Z,10.67
2018-05-29T05:21:39.409Z,9.37
2018-05-29T05:24:08.382Z,9.40
2018-05-29T05:26:37.269Z,10.47
2018-05-29T05:29:06.166Z,9.20
2018-05-29T05:31:35.249Z,9.40
2018-05-29T05:34:04.159Z,9.47
2018-05-29T05:36:33.047Z,10.37
2018-05-29T05:39:01.866Z,10.53
2018-05-29T05:41:30.723Z,10.83
2018-05-29T05:44:01.137Z,11.50
2018-05-29T05:46:29.928Z,10.03
2018-05-29T05:48:58.745Z,11.30
2018-05-29T05:51:27.945Z,11.70
2018-05-29T05:53:56.813Z,12.17
2018-05-29T05:56:25.609Z,11.70
2018-05-29T05:58:54.690Z,11.63
2018-05-29T06:01:23.594Z,13.27
2018-05-29T06:03:52.478Z,13.33
2018-05-29T06:06:21.877Z,14.03
2018-05-29T06:08:52.921Z,13.77
2018-05-29T06:11:21.813Z,13.27
2018-05-29T06:13:51.131Z,14.87
2018-05-29T06:16:19.939Z,16.27
2018-05-29T06:18:49.634Z,16.13
2018-05-29T06:21:18.458Z,15.53
2018-05-29T06:23:47.294Z,16.53
2018-05-29T06:26:16.804Z,15.87
2018-05-29T06:28:45.689Z,14.80
2018-05-29T06:31:14.486Z,14.03
2018-05-29T06:33:43.309Z,13.50
2018-05-29T06:36:12.113Z,13.10
2018-05-29T06:38:41.007Z,12.93
2018-05-29T06:41:09.770Z,13.10
2018-05-29T06:43:38.577Z,12.83
2018-05-29T06:46:07.718Z,13.32
2018-05-29T06:48:36.623Z,12.65
2018-05-29T06:51:05.514Z,14.70
2018-05-29T06:53:34.921Z,15.10
2018-05-29T06:56:03.721Z,14.17
2018-05-29T06:58:32.594Z,12.80
2018-05-29T07:01:01.682Z,12.68
2018-05-29T07:03:30.486Z,11.80
2018-05-29T07:05:59.301Z,12.30
2018-05-29T07:08:39.758Z,10.38
2018-05-29T07:11:09.332Z,11.73
2018-05-29T07:13:38.182Z,10.40
2018-05-29T07:16:07.017Z,9.80
2018-05-29T07:18:35.814Z,9.32
2018-05-29T07:21:05.130Z,8.85
2018-05-29T07:23:33.913Z,8.80
2018-05-29T07:26:02.801Z,8.20
2018-05-29T07:28:31.623Z,8.38
2018-05-29T07:31:00.415Z,8.23
2018-05-29T07:33:29.270Z,8.55
2018-05-29T07:35:58.059Z,7.60
2018-05-29T07:38:26.853Z,8.25
2018-05-29T07:40:56.126Z,8.18
2018-05-29T07:43:25.022Z,8.13
2018-05-29T07:45:53.929Z,7.30
2018-05-29T07:48:22.805Z,7.25
2018-05-29T07:50:51.696Z,7.37
2018-05-29T07:53:21.011Z,7.25
2018-05-29T07:55:49.895Z,7.18
2018-05-29T07:58:18.684Z,6.53
2018-05-29T08:00:47.484Z,7.40
2018-05-29T08:03:16.285Z,7.30
2018-05-29T08:05:45.454Z,6.90
2018-05-29T08:08:15.779Z,7.53
2018-05-29T08:10:44.670Z,7.10
2018-05-29T08:13:14.077Z,6.62
2018-05-29T08:15:42.868Z,7.00
2018-05-29T08:18:11.677Z,7.95
2018-05-29T08:20:40.623Z,7.22
2018-05-29T08:23:09.427Z,7.62
2018-05-29T08:25:38.229Z,7.00
2018-05-29T08:28:07.318Z,7.90
2018-05-29T08:30:36.110Z,6.53
2018-05-29T08:33:04.998Z,6.68
2018-05-29T08:35:34.109Z,6.18
2018-05-29T08:38:02.941Z,7.62
2018-05-29T08:40:31.736Z,6.43
2018-05-29T08:43:01.082Z,6.22
2018-05-29T08:45:29.882Z,6.80
2018-05-29T08:47:58.683Z,7.30
2018-05-29T08:50:27.542Z,7.00
2018-05-29T08:52:56.438Z,7.37
2018-05-29T08:55:25.321Z,6.90
2018-05-29T08:57:54.735Z,6.72
2018-05-29T09:00:23.562Z,7.00
2018-05-29T09:02:52.351Z,7.10
2018-05-29T09:05:21.513Z,7.18
2018-05-29T09:07:51.638Z,7.05
2018-05-29T09:10:21.036Z,7.55
2018-05-29T09:12:50.126Z,7.43
2018-05-29T09:15:18.932Z,6.85
2018-05-29T09:17:47.741Z,7.80
2018-05-29T09:20:16.718Z,7.15
2018-05-29T09:22:45.518Z,7.55
2018-05-29T09:25:14.329Z,7.70
2018-05-29T09:27:43.278Z,7.70
2018-05-29T09:30:12.071Z,7.68
2018-05-29T09:32:40.867Z,6.82
2018-05-29T09:35:10.042Z,7.47
2018-05-29T09:37:38.834Z,6.70
2018-05-29T09:40:07.626Z,6.60
2018-05-29T09:42:37.537Z,5.80
2018-05-29T09:45:06.342Z,6.35
2018-05-29T09:47:35.162Z,6.45
2018-05-29T09:50:04.000Z,6.37
2018-05-29T09:52:32.783Z,6.07
2018-05-29T09:55:01.594Z,6.07
2018-05-29T09:57:32.730Z,6.12
2018-05-29T10:00:01.631Z,5.72
2018-05-29T10:02:30.442Z,5.87
2018-05-29T10:04:59.263Z,6.18
2018-05-29T10:07:28.117Z,5.97
2018-05-29T10:09:59.037Z,5.37
2018-05-29T10:12:28.089Z,5.30
2018-05-29T10:14:56.903Z,5.10
2018-05-29T10:17:25.717Z,5.00
2018-05-29T10:19:54.602Z,5.10
2018-05-29T10:22:23.794Z,4.68
2018-05-29T10:24:52.696Z,5.03
2018-05-29T10:27:21.474Z,4.65
2018-05-29T10:29:50.508Z,4.78
2018-05-29T10:32:19.309Z,4.68
2018-05-29T10:34:48.120Z,5.18
2018-05-29T10:37:16.957Z,5.30
2018-05-29T10:39:45.764Z,4.45
2018-05-29T10:42:14.626Z,4.20
2018-05-29T10:44:44.021Z,4.00
2018-05-29T10:47:12.809Z,3.80
2018-05-29T10:49:41.601Z,3.90
2018-05-29T10:52:10.446Z,4.05
2018-05-29T10:54:39.273Z,3.12
2018-05-29T10:57:08.081Z,4.37
2018-05-29T10:59:38.046Z,4.07
2018-05-29T11:02:06.842Z,4.43
2018-05-29T11:04:35.652Z,3.87
2018-05-29T11:07:04.973Z,3.55
2018-05-29T11:09:35.290Z,3.83
2018-05-29T11:12:04.103Z,3.60
2018-05-29T11:14:33.676Z,3.58
2018-05-29T11:17:02.475Z,3.87
2018-05-29T11:19:31.267Z,3.20
2018-05-29T11:22:00.088Z,3.15
2018-05-29T11:24:28.891Z,3.50
2018-05-29T11:26:58.364Z,3.70
2018-05-29T11:29:27.163Z,3.75
2018-05-29T11:31:56.238Z,4.32
2018-05-29T11:34:25.114Z,3.60
2018-05-29T11:36:53.916Z,3.20
2018-05-29T11:39:22.796Z,3.67
2018-05-29T11:41:51.577Z,3.40
2018-05-29T11:44:20.381Z,3.80
2018-05-29T11:46:50.096Z,3.42
2018-05-29T11:49:18.899Z,2.75
2018-05-29T11:51:47.763Z,3.20
2018-05-29T11:54:16.590Z,3.62
2018-05-29T11:56:45.404Z,3.45
2018-05-29T11:59:14.224Z,3.30
2018-05-29T12:01:43.344Z,3.53
2018-05-29T12:04:12.128Z,3.28
2018-05-29T12:06:40.925Z,3.10
2018-05-29T12:09:11.345Z,3.08
2018-05-29T12:11:40.233Z,3.47
2018-05-29T12:14:09.223Z,3.53
2018-05-29T12:16:38.284Z,3.47
2018-05-29T12:19:07.116Z,3.78
2018-05-29T12:21:35.978Z,3.30
2018-05-29T12:24:04.779Z,3.70
2018-05-29T12:26:33.577Z,3.78
2018-05-29T12:29:03.450Z,3.50
2018-05-29T12:31:32.244Z,3.70
2018-05-29T12:34:01.062Z,4.07
2018-05-29T12:36:30.167Z,3.67
2018-05-29T12:38:58.971Z,3.80
2018-05-29T12:41:27.766Z,3.78
2018-05-29T12:43:56.738Z,3.05
2018-05-29T12:46:25.739Z,3.83
2018-05-29T12:48:54.488Z,3.75
2018-05-29T12:51:23.310Z,3.78
2018-05-29T12:53:52.201Z,3.53
2018-05-29T12:56:21.023Z,4.93
2018-05-29T12:58:49.882Z,4.00
2018-05-29T13:01:18.979Z,3.95
2018-05-29T13:03:47.774Z,3.97
2018-05-29T13:06:16.563Z,3.95
2018-05-29T13:08:49.611Z,3.75
2018-05-29T13:11:18.496Z,3.30
2018-05-29T13:13:47.526Z,3.42
2018-05-29T13:16:16.323Z,3.33
2018-05-29T13:18:46.196Z,3.30
2018-05-29T13:21:15.051Z,3.20
2018-05-29T13:23:43.852Z,3.30
2018-05-29T13:26:12.639Z,3.58
2018-05-29T13:28:42.433Z,3.33
2018-05-29T13:31:11.222Z,3.90
2018-05-29T13:33:40.094Z,3.70
2018-05-29T13:36:08.923Z,4.03
2018-05-29T13:38:37.737Z,4.57
2018-05-29T13:41:06.659Z,3.72
2018-05-29T13:43:35.458Z,3.72
2018-05-29T13:46:04.264Z,3.92
2018-05-29T13:48:33.098Z,3.90
2018-05-29T13:51:01.901Z,4.47
2018-05-29T13:53:30.701Z,3.70
2018-05-29T13:55:59.702Z,4.22
2018-05-29T13:58:28.612Z,3.97
2018-05-29T14:00:57.414Z,3.78
2018-05-29T14:03:25.510Z,3.90
2018-05-29T14:05:53.319Z,3.37
2018-05-29T14:08:21.124Z,3.45
2018-05-29T14:10:49.206Z,3.50
2018-05-29T14:13:17.024Z,3.28
2018-05-29T14:15:44.842Z,3.80
2018-05-29T14:18:12.916Z,3.37
2018-05-29T14:20:42.319Z,3.45
2018-05-29T14:23:10.129Z,3.17
2018-05-29T14:25:38.004Z,3.33
2018-05-29T14:28:05.865Z,3.00
2018-05-29T14:30:33.676Z,3.47
2018-05-29T14:33:01.751Z,3.22
2018-05-29T14:35:29.561Z,4.15
2018-05-29T14:37:57.364Z,3.92
2018-05-29T14:40:25.779Z,4.30
2018-05-29T14:42:53.595Z,3.35
2018-05-29T14:45:21.399Z,4.07
2018-05-29T14:47:49.470Z,3.62
2018-05-29T14:50:17.439Z,3.87
2018-05-29T14:52:45.247Z,4.53
2018-05-29T14:55:13.097Z,4.78
2018-05-29T14:57:40.917Z,4.97
2018-05-29T15:00:08.743Z,5.55
2018-05-29T15:02:37.193Z,5.93
2018-05-29T15:05:05.004Z,5.50
2018-05-29T15:07:32.831Z,5.10
2018-05-29T15:10:01.534Z,5.55
2018-05-29T15:12:29.370Z,4.72
2018-05-29T15:14:57.189Z,3.90
2018-05-29T15:17:25.082Z,4.30
2018-05-29T15:19:52.905Z,4.65
2018-05-29T15:22:22.169Z,4.43
2018-05-29T15:24:50.245Z,4.00
2018-05-29T15:27:18.073Z,3.85
2018-05-29T15:29:45.882Z,4.03
2018-05-29T15:32:13.738Z,4.28
2018-05-29T15:34:41.566Z,4.50
2018-05-29T15:37:09.375Z,4.12
2018-05-29T15:39:37.290Z,4.18
2018-05-29T15:42:05.110Z,4.60
2018-05-29T15:44:32.951Z,4.90
2018-05-29T15:47:01.442Z,4.45
2018-05-29T15:49:29.287Z,4.65
2018-05-29T15:51:57.103Z,5.50
2018-05-29T15:54:24.999Z,5.28
2018-05-29T15:56:52.815Z,5.78
2018-05-29T15:59:20.639Z,5.55
2018-05-29T16:01:48.669Z,5.87
2018-05-29T16:04:16.496Z,4.80
2018-05-29T16:06:44.323Z,4.68
2018-05-29T16:09:12.875Z,4.68
2018-05-29T16:11:40.683Z,4.85
2018-05-29T16:14:08.557Z,4.57
2018-05-29T16:16:36.891Z,4.87
2018-05-29T16:19:04.726Z,4.43
2018-05-29T16:21:32.555Z,4.60
2018-05-29T16:24:01.215Z,4.30
2018-05-29T16:26:29.048Z,5.15
2018-05-29T16:28:56.854Z,4.18
2018-05-29T16:31:24.862Z,4.10
2018-05-29T16:33:52.698Z,4.47
2018-05-29T16:36:20.520Z,4.50
2018-05-29T16:38:48.398Z,4.12
2018-05-29T16:41:16.217Z,4.60
2018-05-29T16:43:44.075Z,4.57
2018-05-29T16:46:12.320Z,4.40
2018-05-29T16:48:40.131Z,3.85
2018-05-29T16:51:07.944Z,4.05
2018-05-29T16:53:36.648Z,4.78
2018-05-29T16:56:04.486Z,4.15
2018-05-29T16:58:32.311Z,4.40
2018-05-29T17:01:00.178Z,4.20
2018-05-29T17:03:28.003Z,4.87
2018-05-29T17:05:55.826Z,4.87
2018-05-29T17:08:25.183Z,5.03
2018-05-29T17:10:53.011Z,5.43
2018-05-29T17:13:20.824Z,4.87
2018-05-29T17:15:49.287Z,4.45
2018-05-29T17:18:17.099Z,4.82
2018-05-29T17:20:44.913Z,5.40
2018-05-29T17:23:13.000Z,5.85
2018-05-29T17:25:41.503Z,5.32
2018-05-29T17:28:09.327Z,5.12
2018-05-29T17:30:37.416Z,5.45
2018-05-29T17:33:05.223Z,5.75
2018-05-29T17:35:33.042Z,5.37
2018-05-29T17:38:01.010Z,5.50
2018-05-29T17:40:28.831Z,5.53
2018-05-29T17:42:56.666Z,6.20
2018-05-29T17:45:24.830Z,6.70
2018-05-29T17:47:52.664Z,5.80
2018-05-29T17:50:20.488Z,6.35
2018-05-29T17:52:48.706Z,5.80
2018-05-29T17:55:16.533Z,5.95
2018-05-29T17:57:44.374Z,6.05
2018-05-29T18:00:12.558Z,6.20
2018-05-29T18:02:40.380Z,6.30
2018-05-29T18:05:08.245Z,5.87
2018-05-29T18:07:37.954Z,6.20
2018-05-29T18:10:05.861Z,6.62
2018-05-29T18:12:33.702Z,5.90
2018-05-29T18:15:02.099Z,6.07
2018-05-29T18:17:29.917Z,5.93
2018-05-29T18:19:57.882Z,6.15
2018-05-29T18:22:25.959Z,6.45
2018-05-29T18:24:53.778Z,6.50
2018-05-29T18:27:22.907Z,6.25
2018-05-29T18:29:51.083Z,6.15
2018-05-29T18:32:18.911Z,6.87
2018-05-29T18:34:46.758Z,6.10
2018-05-29T18:37:14.958Z,6.82
2018-05-29T18:39:42.784Z,5.57
2018-05-29T18:42:10.616Z,5.53
2018-05-29T18:44:38.703Z,5.87
2018-05-29T18:47:06.499Z,5.85
2018-05-29T18:49:34.376Z,5.95
2018-05-29T18:52:02.307Z,6.22
2018-05-29T18:54:30.116Z,5.70
2018-05-29T18:56:57.954Z,5.45
2018-05-29T18:59:25.821Z,4.97
2018-05-29T19:01:53.662Z,5.03
2018-05-29T19:04:21.508Z,4.70
2018-05-29T19:06:49.891Z,5.28
2018-05-29T19:09:19.476Z,5.35
2018-05-29T19:11:47.297Z,4.95
2018-05-29T19:14:15.622Z,4.95
2018-05-29T19:16:43.445Z,4.93
2018-05-29T19:19:11.258Z,4.87
2018-05-29T19:21:39.144Z,4.90
2018-05-29T19:24:06.966Z,4.80
2018-05-29T19:26:34.778Z,4.50
2018-05-29T19:29:03.131Z,4.35
2018-05-29T19:31:30.982Z,4.12
2018-05-29T19:33:58.807Z,4.70
2018-05-29T19:36:26.943Z,5.05
2018-05-29T19:38:54.756Z,4.78
2018-05-29T19:41:22.588Z,5.07
2018-05-29T19:43:50.641Z,5.10
2018-05-29T19:46:18.467Z,4.82
2018-05-29T19:48:46.291Z,4.47
2018-05-29T19:51:15.344Z,5.03
2018-05-29T19:53:43.142Z,4.72
2018-05-29T19:56:10.987Z,4.60
2018-05-29T19:58:39.193Z,5.53
2018-05-29T20:01:07.022Z,5.87
2018-05-29T20:03:34.838Z,5.10
2018-05-29T20:06:05.544Z,5.05
2018-05-29T20:08:35.458Z,5.68
2018-05-29T20:11:03.491Z,5.97
2018-05-29T20:13:31.459Z,5.40
2018-05-29T20:15:59.309Z,4.97
2018-05-29T20:18:27.325Z,5.25
2018-05-29T20:20:55.219Z,5.50
2018-05-29T20:23:23.044Z,6.25
2018-05-29T20:25:50.841Z,6.00
2018-05-29T20:28:18.916Z,6.90
2018-05-29T20:30:46.759Z,6.70
2018-05-29T20:33:14.562Z,8.23
2018-05-29T20:35:42.799Z,7.47
2018-05-29T20:38:10.616Z,6.60
2018-05-29T20:40:38.419Z,7.33
2018-05-29T20:43:06.424Z,6.50
2018-05-29T20:45:34.226Z,6.33
2018-05-29T20:48:02.048Z,6.97
2018-05-29T20:50:30.156Z,6.93
2018-05-29T20:52:57.983Z,5.20
2018-05-29T20:55:25.834Z,5.50
2018-05-29T20:57:54.052Z,5.37
2018-05-29T21:00:21.875Z,5.33
2018-05-29T21:02:49.685Z,5.67
2018-05-29T21:05:17.592Z,5.13
2018-05-29T21:07:46.945Z,6.17
2018-05-29T21:10:14.751Z,5.17
2018-05-29T21:12:43.126Z,5.53
2018-05-29T21:15:10.939Z,6.63
2018-05-29T21:17:38.758Z,7.77
2018-05-29T21:20:06.927Z,7.10
2018-05-29T21:22:34.782Z,7.40
2018-05-29T21:25:02.587Z,7.10
2018-05-29T21:27:31.512Z,7.57
2018-05-29T21:29:59.329Z,8.23
2018-05-29T21:32:27.144Z,8.87
2018-05-29T21:34:55.033Z,7.63
2018-05-29T21:37:22.860Z,8.47
2018-05-29T21:39:50.670Z,8.00
2018-05-29T21:42:18.523Z,6.40
2018-05-29T21:44:46.335Z,8.33
2018-05-29T21:47:14.135Z,7.67
2018-05-29T21:49:42.517Z,7.47
2018-05-29T21:52:10.326Z,7.53
2018-05-29T21:54:38.134Z,8.70
2018-05-29T21:57:06.323Z,8.57
2018-05-29T21:59:34.125Z,7.97
2018-05-29T22:02:01.934Z,8.80
2018-05-29T22:04:29.809Z,8.40
2018-05-29T22:06:57.609Z,8.13
2018-05-29T22:09:27.107Z,8.27
2018-05-29T22:11:55.179Z,7.33
2018-05-29T22:14:23.150Z,9.03
2018-05-29T22:16:50.960Z,7.33
2018-05-29T22:19:19.172Z,6.50
2018-05-29T22:21:46.975Z,6.47
2018-05-29T22:24:14.779Z,6.43
2018-05-29T22:26:44.012Z,7.93
2018-05-29T22:29:11.812Z,6.13
2018-05-29T22:31:39.615Z,7.23
2018-05-29T22:34:07.625Z,7.37
2018-05-29T22:36:35.437Z,7.00
2018-05-29T22:39:03.279Z,7.70
2018-05-29T22:41:31.425Z,6.53
2018-05-29T22:43:59.241Z,9.50
2018-05-29T22:46:27.043Z,7.10
2018-05-29T22:48:56.349Z,8.67
2018-05-29T22:51:24.168Z,8.10
2018-05-29T22:53:51.966Z,7.93
2018-05-29T22:56:19.805Z,6.43
2018-05-29T22:58:48.027Z,7.17
2018-05-29T23:01:15.842Z,6.87
2018-05-29T23:03:43.698Z,6.73
2018-05-29T23:06:11.499Z,6.80
2018-05-29T23:08:40.926Z,7.27
2018-05-29T23:11:09.007Z,6.43
2018-05-29T23:13:36.819Z,8.60
2018-05-29T23:16:04.621Z,6.97
2018-05-29T23:18:32.471Z,7.37
2018-05-29T23:21:00.269Z,8.43
2018-05-29T23:23:28.066Z,7.43
2018-05-29T23:25:56.094Z,8.23
2018-05-29T23:28:23.907Z,8.03
2018-05-29T23:30:51.710Z,8.63
2018-05-29T23:33:19.550Z,8.37
2018-05-29T23:35:47.355Z,8.93
2018-05-29T23:38:15.146Z,8.70
2018-05-29T23:40:42.990Z,7.23
2018-05-29T23:43:10.786Z,6.43
2018-05-29T23:45:38.595Z,7.37
2018-05-29T23:48:07.834Z,6.90
2018-05-29T23:50:35.655Z,5.93
2018-05-29T23:53:03.470Z,5.97
2018-05-29T23:55:31.523Z,6.60
2018-05-29T23:57:59.325Z,6.97
